Time;durP1;ratioP1;P1;durP2;ratioP2;P2;SDS_P1;SDS_P2;PMS_P1;PMS_P2;Temp;Humidity;BMP_temperature;BMP_pressure;BME280_temperature;BME280_humidity;BME280_pressure;Samples;Min_cycle;Max_cycle;Signal;HPM_P1;HPM_P2
2021/09/14 00:00:14;;;;;;;8.43;3.33;;;20.40;78.10;;;;;;5013616;28;20030;-74
2021/09/14 00:02:40;;;;;;;7.88;3.42;;;20.40;78.30;;;;;;5013615;28;20029;-74
2021/09/14 00:05:06;;;;;;;7.63;3.22;;;20.40;78.20;;;;;;5031435;28;20025;-75
2021/09/14 00:07:31;;;;;;;8.25;3.42;;;20.40;78.30;;;;;;5031420;28;20124;-74
2021/09/14 00:09:57;;;;;;;9.73;3.60;;;20.40;78.10;;;;;;5013601;28;20068;-74
2021/09/14 00:12:23;;;;;;;6.35;3.10;;;20.40;78.20;;;;;;5013858;28;20045;-74
2021/09/14 00:14:49;;;;;;;6.97;3.15;;;20.30;78.10;;;;;;5031467;28;20028;-74
2021/09/14 00:17:14;;;;;;;8.55;3.47;;;20.30;77.90;;;;;;5031438;28;20104;-74
2021/09/14 00:19:40;;;;;;;6.72;3.03;;;20.30;77.80;;;;;;5031002;28;20148;-74
2021/09/14 00:22:05;;;;;;;6.90;3.35;;;20.30;77.80;;;;;;5031380;28;20041;-74
2021/09/14 00:24:31;;;;;;;8.93;3.63;;;20.30;77.90;;;;;;5013569;28;20022;-75
2021/09/14 00:26:56;;;;;;;6.82;3.40;;;20.30;77.70;;;;;;5013701;28;20033;-75
2021/09/14 00:29:22;;;;;;;6.57;3.22;;;20.30;77.80;;;;;;5031199;28;20041;-74
2021/09/14 00:31:47;;;;;;;7.90;3.55;;;20.30;77.90;;;;;;5031328;28;20037;-74
2021/09/14 00:34:13;;;;;;;7.45;3.22;;;20.30;77.70;;;;;;5013509;28;20425;-74
2021/09/14 00:36:38;;;;;;;6.45;3.35;;;20.30;77.80;;;;;;5013538;28;20060;-74
2021/09/14 00:39:04;;;;;;;7.53;3.80;;;20.30;77.40;;;;;;5013133;28;20393;-74
2021/09/14 00:41:29;;;;;;;5.93;3.30;;;20.30;77.40;;;;;;5013509;28;20028;-74
2021/09/14 00:44:00;;;;;;;8.07;3.90;;;20.30;77.30;;;;;;5031194;28;20026;-74
2021/09/14 00:46:25;;;;;;;7.35;3.92;;;20.30;77.10;;;;;;5031262;28;20108;-74
2021/09/14 00:48:51;;;;;;;6.72;3.50;;;20.30;77.10;;;;;;5030810;28;20061;-74
2021/09/14 00:51:17;;;;;;;6.55;3.88;;;20.30;77.30;;;;;;5013386;28;20548;-73
2021/09/14 00:53:42;;;;;;;6.95;3.70;;;20.30;77.50;;;;;;5070841;22;20029;-71
2021/09/14 00:56:08;;;;;;;6.63;3.30;;;20.30;77.20;;;;;;5034638;28;20494;-69
2021/09/14 00:58:34;;;;;;;6.88;3.10;;;20.20;77.60;;;;;;5016347;28;20122;-70
2021/09/14 01:00:59;;;;;;;7.40;3.28;;;20.20;77.50;;;;;;5010675;28;20061;-70
2021/09/14 01:03:25;;;;;;;6.75;3.28;;;20.20;77.60;;;;;;5024947;28;20021;-70
2021/09/14 01:05:50;;;;;;;6.43;3.13;;;20.20;77.30;;;;;;5032367;28;20022;-69
2021/09/14 01:08:17;;;;;;;6.47;3.10;;;20.30;77.20;;;;;;5027959;28;20164;-68
2021/09/14 01:10:43;;;;;;;6.32;3.22;;;20.20;77.30;;;;;;4995076;28;20040;-70
2021/09/14 01:13:09;;;;;;;6.13;3.15;;;20.20;77.30;;;;;;5012769;28;20108;-69
2021/09/14 01:15:35;;;;;;;6.05;3.10;;;20.20;77.60;;;;;;5012029;28;20033;-69
2021/09/14 01:18:03;;;;;;;5.55;3.10;;;20.20;77.50;;;;;;5013319;28;20048;-70
2021/09/14 01:20:28;;;;;;;7.10;3.75;;;20.20;77.50;;;;;;5012341;28;20022;-70
2021/09/14 01:22:54;;;;;;;6.55;2.95;;;20.20;77.80;;;;;;5013287;28;20092;-70
2021/09/14 01:25:22;;;;;;;5.63;3.17;;;20.20;78.50;;;;;;5013814;28;20072;-70
2021/09/14 01:27:49;;;;;;;5.97;3.00;;;20.20;78.00;;;;;;5013586;28;20041;-70
2021/09/14 01:30:18;;;;;;;6.15;2.70;;;20.20;78.30;;;;;;4995650;28;20049;-70
2021/09/14 01:32:50;;;;;;;5.65;2.50;;;20.20;78.10;;;;;;4995999;28;20049;-69
2021/09/14 01:35:17;;;;;;;4.97;2.30;;;20.20;78.10;;;;;;5012308;28;20030;-70
2021/09/14 01:37:43;;;;;;;4.65;2.40;;;20.20;78.80;;;;;;5012913;28;20025;-70
2021/09/14 01:40:09;;;;;;;5.25;2.30;;;20.20;78.90;;;;;;4995531;28;20028;-70
2021/09/14 01:42:36;;;;;;;5.65;2.65;;;20.20;78.70;;;;;;4995606;28;20026;-70
2021/09/14 01:45:03;;;;;;;5.88;2.70;;;20.20;79.10;;;;;;4995337;28;20022;-71
2021/09/14 01:47:29;;;;;;;6.28;2.90;;;20.20;78.30;;;;;;5013156;28;20113;-69
2021/09/14 01:49:54;;;;;;;5.47;2.63;;;20.20;78.10;;;;;;5011714;28;20116;-69
2021/09/14 01:52:20;;;;;;;5.10;2.50;;;20.20;78.10;;;;;;5012872;28;20105;-68
2021/09/14 01:54:48;;;;;;;6.10;2.95;;;20.20;78.20;;;;;;5012979;28;20045;-70
2021/09/14 01:57:14;;;;;;;4.70;2.33;;;20.20;78.20;;;;;;5029213;28;20053;-70
2021/09/14 01:59:40;;;;;;;5.05;2.35;;;20.20;78.30;;;;;;5032377;28;20033;-69
2021/09/14 02:02:14;;;;;;;5.45;2.30;;;20.20;78.20;;;;;;5032308;28;20025;-70
2021/09/14 02:42:59;;;;;;;5.43;2.80;;;20.20;78.60;;;;;;5031858;28;20024;-69
2021/09/14 02:58:50;;;;;;;4.10;2.40;;;20.20;78.60;;;;;;5031622;28;20029;-70
2021/09/14 03:01:16;;;;;;;4.35;2.17;;;20.20;78.50;;;;;;5013383;28;20021;-70
2021/09/14 03:03:45;;;;;;;4.80;2.35;;;20.20;79.00;;;;;;5031456;28;20099;-70
2021/09/14 03:06:12;;;;;;;4.63;2.20;;;20.20;78.90;;;;;;5013710;28;20654;-70
2021/09/14 03:08:42;;;;;;;3.78;2.00;;;20.10;78.40;;;;;;5012968;28;20053;-70
2021/09/14 03:11:12;;;;;;;4.95;2.55;;;20.10;78.40;;;;;;5031220;28;20116;-70
2021/09/14 03:13:38;;;;;;;4.50;2.23;;;20.20;78.50;;;;;;5013432;28;20517;-70
2021/09/14 03:16:05;;;;;;;4.45;2.25;;;20.20;78.40;;;;;;5012602;28;20025;-69
2021/09/14 03:18:30;;;;;;;4.53;2.10;;;20.20;78.30;;;;;;5013183;28;20380;-70
2021/09/14 03:20:56;;;;;;;4.28;1.95;;;20.10;78.10;;;;;;5031021;28;20055;-70
2021/09/14 03:23:22;;;;;;;5.60;2.13;;;20.10;78.00;;;;;;5030512;28;20061;-70
2021/09/14 03:25:47;;;;;;;5.78;2.70;;;20.10;78.10;;;;;;5013217;28;20038;-70
2021/09/14 03:28:13;;;;;;;4.63;2.53;;;20.10;78.10;;;;;;5030936;28;20028;-70
2021/09/14 03:30:38;;;;;;;4.05;2.20;;;20.10;78.20;;;;;;5030658;28;20092;-68
2021/09/14 03:33:04;;;;;;;4.90;2.05;;;20.10;78.10;;;;;;5013420;28;20018;-70
2021/09/14 03:35:30;;;;;;;4.78;2.42;;;20.10;78.00;;;;;;5031044;28;20047;-70
2021/09/14 03:37:57;;;;;;;4.75;2.22;;;20.10;77.90;;;;;;5030106;28;20026;-69
2021/09/14 03:40:22;;;;;;;5.32;2.65;;;20.10;78.20;;;;;;5012250;28;20040;-68
2021/09/14 03:42:48;;;;;;;5.15;2.28;;;20.10;78.00;;;;;;5012940;28;20021;-69
2021/09/14 03:45:14;;;;;;;5.22;2.50;;;20.10;77.90;;;;;;5030157;28;20049;-70
2021/09/14 03:47:39;;;;;;;4.80;2.50;;;20.10;77.80;;;;;;5030840;28;20088;-71
2021/09/14 03:50:05;;;;;;;4.43;2.28;;;20.10;78.10;;;;;;5012565;28;20033;-70
2021/09/14 03:52:31;;;;;;;4.53;2.22;;;20.10;77.90;;;;;;5012287;28;20025;-70
2021/09/14 03:54:56;;;;;;;4.63;2.40;;;20.10;77.60;;;;;;5030602;28;20038;-70
2021/09/14 03:57:22;;;;;;;4.40;2.10;;;20.10;77.60;;;;;;5012857;28;20037;-69
2021/09/14 03:59:47;;;;;;;4.18;2.33;;;20.10;77.70;;;;;;5030074;28;20029;-70
2021/09/14 04:02:25;;;;;;;5.00;2.20;;;20.10;77.90;;;;;;4999747;28;20021;-70
2021/09/14 04:09:52;;;;;;;5.93;2.40;;;20.10;78.10;;;;;;5030655;28;20445;-69
2021/09/14 04:12:17;;;;;;;4.50;1.98;;;20.10;78.00;;;;;;5013354;28;20025;-70
2021/09/14 04:14:43;;;;;;;3.78;1.90;;;20.10;78.00;;;;;;5011691;28;20128;-70
2021/09/14 04:17:10;;;;;;;6.70;2.63;;;20.10;78.00;;;;;;5030530;28;20029;-70
2021/09/14 04:19:36;;;;;;;4.85;2.15;;;20.10;77.90;;;;;;5030271;28;20025;-69
2021/09/14 04:22:01;;;;;;;5.47;2.15;;;20.10;77.80;;;;;;5011915;28;20017;-70
2021/09/14 04:24:27;;;;;;;4.13;2.20;;;20.10;77.90;;;;;;5010617;28;20057;-70
2021/09/14 04:26:52;;;;;;;4.45;2.08;;;20.10;77.90;;;;;;5015278;28;20020;-70
2021/09/14 04:29:18;;;;;;;4.05;2.13;;;20.10;77.90;;;;;;5033096;28;20025;-70
2021/09/14 04:31:43;;;;;;;4.55;2.20;;;20.10;77.90;;;;;;5015815;28;20037;-69
2021/09/14 04:34:09;;;;;;;4.97;2.88;;;20.10;77.70;;;;;;5033803;28;20038;-70
2021/09/14 04:36:34;;;;;;;4.45;2.28;;;20.10;77.80;;;;;;5016008;28;20040;-70
2021/09/14 04:39:00;;;;;;;4.63;2.20;;;20.10;77.90;;;;;;5016360;28;20025;-69
2021/09/14 04:41:25;;;;;;;3.97;2.10;;;20.10;77.90;;;;;;5016711;28;20359;-69
2021/09/14 04:43:51;;;;;;;3.85;1.88;;;20.00;77.80;;;;;;5016084;28;20018;-70
2021/09/14 04:46:16;;;;;;;5.60;2.38;;;20.10;77.90;;;;;;5013162;28;20028;-69
2021/09/14 04:48:42;;;;;;;5.30;3.00;;;20.00;77.80;;;;;;5012630;28;20673;-69
2021/09/14 04:51:07;;;;;;;4.45;2.25;;;20.10;78.10;;;;;;5030676;28;20112;-69
2021/09/14 04:53:33;;;;;;;5.63;2.45;;;20.00;78.00;;;;;;5044165;28;20029;-69
2021/09/14 04:55:58;;;;;;;4.22;2.30;;;20.00;78.10;;;;;;5008210;28;20559;-69
2021/09/14 04:58:24;;;;;;;4.13;2.15;;;20.00;78.00;;;;;;5015841;28;20029;-70
2021/09/14 05:00:49;;;;;;;4.38;2.42;;;20.00;78.10;;;;;;5015968;28;20036;-70
2021/09/14 05:03:15;;;;;;;5.60;2.63;;;20.00;78.10;;;;;;5033994;28;20030;-68
2021/09/14 05:05:41;;;;;;;4.32;2.38;;;20.00;77.90;;;;;;5015004;28;20912;-69
2021/09/14 05:08:07;;;;;;;4.68;2.40;;;20.00;77.70;;;;;;5033721;28;20076;-69
2021/09/14 05:10:32;;;;;;;7.30;2.75;;;20.00;77.60;;;;;;5014594;28;20017;-69
2021/09/14 05:13:00;;;;;;;8.80;3.35;;;20.00;77.70;;;;;;5015292;28;20025;-72
2021/09/14 05:15:26;;;;;;;6.97;2.58;;;20.00;77.60;;;;;;5033293;28;20032;-71
2021/09/14 05:17:51;;;;;;;8.35;3.40;;;20.10;78.20;;;;;;5014917;28;20458;-69
2021/09/14 05:20:17;;;;;;;7.05;3.88;;;20.10;78.10;;;;;;5030382;28;20029;-68
2021/09/14 05:22:42;;;;;;;8.85;4.30;;;20.20;76.60;;;;;;5024022;28;20112;-70
2021/09/14 05:25:09;;;;;;;10.48;4.47;;;20.20;77.10;;;;;;5013676;28;20034;-70
2021/09/14 05:27:34;;;;;;;8.52;3.40;;;20.30;77.20;;;;;;5015100;28;20553;-69
2021/09/14 05:30:00;;;;;;;13.27;4.03;;;20.20;76.70;;;;;;5015528;28;20025;-72
2021/09/14 05:32:26;;;;;;;10.30;3.58;;;20.20;77.30;;;;;;5028794;28;20029;-71
2021/09/14 05:34:52;;;;;;;9.88;4.00;;;20.30;76.40;;;;;;5005373;28;20026;-71
2021/09/14 05:37:20;;;;;;;15.65;3.97;;;20.20;76.20;;;;;;5003924;28;20033;-70
2021/09/14 05:39:45;;;;;;;8.05;3.58;;;20.20;75.80;;;;;;5005484;28;20022;-71
2021/09/14 05:42:11;;;;;;;9.20;3.30;;;20.20;76.20;;;;;;5027675;28;20708;-71
2021/09/14 05:44:37;;;;;;;8.35;3.00;;;20.20;75.40;;;;;;5029402;28;20054;-71
2021/09/14 05:47:04;;;;;;;5.97;2.92;;;20.20;74.70;;;;;;4990551;28;20480;-70
2021/09/14 05:49:29;;;;;;;6.45;3.03;;;20.10;73.90;;;;;;4990204;28;20503;-71
2021/09/14 05:51:55;;;;;;;9.82;3.15;;;20.00;73.40;;;;;;4997162;28;20077;-70
2021/09/14 05:54:21;;;;;;;5.50;2.83;;;20.00;73.00;;;;;;4996395;28;20116;-70
2021/09/14 05:56:47;;;;;;;4.43;2.58;;;20.00;72.40;;;;;;4998558;28;20029;-70
2021/09/14 05:59:13;;;;;;;4.85;2.30;;;20.00;72.70;;;;;;4997072;28;20034;-70
2021/09/14 06:01:38;;;;;;;5.25;2.42;;;20.00;71.60;;;;;;4989157;28;20501;-70
2021/09/14 06:04:04;;;;;;;4.55;2.38;;;20.00;71.70;;;;;;4990875;28;20034;-70
2021/09/14 06:06:29;;;;;;;10.55;3.15;;;20.00;70.80;;;;;;5006122;28;20068;-70
2021/09/14 06:08:55;;;;;;;6.82;2.30;;;20.00;71.70;;;;;;5019604;28;20475;-70
2021/09/14 06:11:20;;;;;;;8.50;2.67;;;20.00;71.70;;;;;;4996485;28;20514;-70
2021/09/14 06:13:46;;;;;;;8.43;2.40;;;20.00;70.50;;;;;;5007652;28;20021;-69
2021/09/14 06:16:12;;;;;;;6.05;2.40;;;20.00;70.80;;;;;;4990044;28;20033;-70
2021/09/14 06:18:37;;;;;;;5.65;2.60;;;20.00;70.30;;;;;;5007482;28;20029;-70
2021/09/14 06:21:05;;;;;;;5.70;2.53;;;20.00;70.20;;;;;;4989551;28;20402;-70
2021/09/14 06:23:30;;;;;;;5.28;2.85;;;20.00;70.20;;;;;;5007953;28;20022;-70
2021/09/14 06:25:56;;;;;;;6.10;2.83;;;20.00;70.40;;;;;;4990183;28;20459;-70
2021/09/14 06:28:22;;;;;;;5.72;2.90;;;20.00;70.10;;;;;;5006615;28;20045;-70
2021/09/14 06:30:47;;;;;;;6.47;2.95;;;20.00;70.40;;;;;;4994088;28;20031;-71
2021/09/14 06:33:13;;;;;;;6.35;2.97;;;20.00;70.70;;;;;;4999804;28;20017;-71
2021/09/14 06:35:38;;;;;;;6.22;3.08;;;20.00;71.40;;;;;;5000084;28;20082;-71
2021/09/14 06:38:04;;;;;;;8.13;3.60;;;20.00;71.10;;;;;;4998793;28;20383;-71
2021/09/14 06:40:32;;;;;;;6.28;3.40;;;20.10;71.20;;;;;;4996695;28;20505;-71
2021/09/14 06:42:57;;;;;;;6.90;3.35;;;20.10;71.30;;;;;;5026840;28;20025;-71
2021/09/14 06:45:23;;;;;;;7.10;3.78;;;20.10;71.30;;;;;;5009531;28;20030;-70
2021/09/14 06:47:49;;;;;;;7.07;3.70;;;20.00;71.40;;;;;;5009918;28;20025;-70
2021/09/14 06:50:15;;;;;;;6.82;4.53;;;19.90;71.40;;;;;;5009176;28;20192;-69
2021/09/14 06:52:46;;;;;;;8.85;4.53;;;19.90;71.50;;;;;;5028136;28;20052;-71
2021/09/14 06:55:11;;;;;;;7.43;4.17;;;19.90;71.50;;;;;;5027249;28;20038;-70
2021/09/14 06:57:37;;;;;;;8.25;4.57;;;19.90;71.40;;;;;;5026887;28;20029;-70
2021/09/14 07:00:03;;;;;;;8.77;4.43;;;20.00;71.20;;;;;;5026120;28;20040;-71
2021/09/14 07:02:29;;;;;;;7.43;4.57;;;20.00;71.20;;;;;;5008600;28;20439;-69
2021/09/14 07:04:54;;;;;;;7.60;4.45;;;20.10;71.10;;;;;;5009487;28;20031;-70
2021/09/14 07:07:20;;;;;;;8.02;4.97;;;20.10;71.00;;;;;;5009573;28;20041;-70
2021/09/14 07:09:45;;;;;;;8.98;5.50;;;20.10;71.30;;;;;;5009238;28;20120;-70
2021/09/14 07:12:11;;;;;;;10.20;5.00;;;20.10;71.40;;;;;;5026541;28;20044;-72
2021/09/14 07:14:38;;;;;;;10.45;5.15;;;20.10;71.50;;;;;;5026522;28;20028;-70
2021/09/14 07:17:04;;;;;;;9.10;5.40;;;20.10;71.80;;;;;;5011722;28;20482;-70
2021/09/14 07:19:29;;;;;;;8.27;5.40;;;20.20;71.70;;;;;;5009361;28;20033;-70
2021/09/14 07:21:56;;;;;;;9.98;5.15;;;20.10;71.50;;;;;;5009942;28;20053;-70
2021/09/14 07:24:22;;;;;;;8.77;5.53;;;20.20;71.50;;;;;;5009306;28;20079;-69
2021/09/14 07:26:47;;;;;;;10.60;5.47;;;20.20;71.40;;;;;;5009273;28;20030;-70
2021/09/14 07:29:13;;;;;;;8.45;5.30;;;20.30;71.30;;;;;;5026644;28;20034;-70
2021/09/14 07:31:41;;;;;;;9.95;5.15;;;20.30;71.50;;;;;;5009623;28;20033;-70
2021/09/14 07:34:06;;;;;;;10.13;5.45;;;20.30;71.40;;;;;;5027107;28;20529;-70
2021/09/14 07:36:32;;;;;;;10.52;5.05;;;20.40;71.40;;;;;;5009918;28;20112;-70
2021/09/14 07:38:57;;;;;;;9.13;5.55;;;20.40;71.20;;;;;;5010237;28;20047;-71
2021/09/14 07:41:23;;;;;;;9.25;5.38;;;20.40;71.20;;;;;;4999291;28;20117;-71
2021/09/14 07:43:49;;;;;;;9.25;5.65;;;20.40;71.30;;;;;;4989644;28;20033;-70
2021/09/14 07:46:14;;;;;;;9.57;5.60;;;20.40;71.40;;;;;;5007460;28;20072;-71
2021/09/14 07:48:40;;;;;;;8.57;5.22;;;20.40;71.50;;;;;;4988899;28;20029;-71
2021/09/14 07:51:06;;;;;;;9.82;5.60;;;20.50;71.60;;;;;;5007170;28;20424;-70
2021/09/14 07:53:31;;;;;;;9.88;5.45;;;20.50;71.50;;;;;;5007076;28;20141;-70
2021/09/14 07:55:57;;;;;;;10.23;5.50;;;20.50;71.70;;;;;;4989151;28;20034;-70
2021/09/14 07:58:23;;;;;;;10.10;5.38;;;20.60;71.70;;;;;;4989925;28;20052;-70
2021/09/14 08:00:48;;;;;;;8.40;5.30;;;20.60;71.60;;;;;;4992515;28;20034;-70
2021/09/14 08:03:14;;;;;;;10.32;5.15;;;20.70;71.60;;;;;;4992906;28;20033;-70
2021/09/14 08:05:40;;;;;;;9.45;5.63;;;20.70;71.70;;;;;;4994801;28;20163;-70
2021/09/14 08:08:07;;;;;;;9.15;5.75;;;20.60;71.60;;;;;;4994136;28;20052;-70
2021/09/14 08:10:34;;;;;;;11.23;5.38;;;20.60;71.70;;;;;;5011646;28;20052;-70
2021/09/14 08:13:00;;;;;;;10.52;5.78;;;20.70;71.70;;;;;;5010879;28;20025;-70
2021/09/14 08:15:25;;;;;;;10.15;5.80;;;20.70;71.50;;;;;;5010071;28;20479;-70
2021/09/14 08:17:51;;;;;;;8.98;5.60;;;20.80;71.50;;;;;;4990959;28;20034;-70
2021/09/14 08:20:17;;;;;;;9.45;5.65;;;20.90;72.00;;;;;;4993710;28;20026;-70
2021/09/14 08:22:43;;;;;;;8.40;5.18;;;20.90;71.40;;;;;;4992399;28;20045;-70
2021/09/14 08:25:09;;;;;;;8.13;5.18;;;20.90;71.40;;;;;;4991992;28;20121;-70
2021/09/14 08:27:35;;;;;;;8.27;5.35;;;21.00;71.30;;;;;;4992358;28;20432;-70
2021/09/14 08:30:02;;;;;;;7.40;5.00;;;21.00;71.40;;;;;;4992145;28;20022;-70
2021/09/14 08:32:27;;;;;;;8.30;5.35;;;21.10;71.30;;;;;;4991545;28;20037;-71
2021/09/14 08:34:53;;;;;;;9.75;6.15;;;21.00;71.00;;;;;;4992413;28;20036;-70
2021/09/14 08:37:18;;;;;;;8.48;5.75;;;21.10;71.00;;;;;;4992289;28;20026;-70
2021/09/14 08:39:44;;;;;;;8.13;5.38;;;21.10;70.90;;;;;;4992131;28;20026;-70
2021/09/14 08:42:10;;;;;;;9.35;5.90;;;21.10;71.00;;;;;;5008386;28;20112;-70
2021/09/14 08:44:38;;;;;;;9.63;6.05;;;21.00;70.80;;;;;;5012804;28;20029;-70
2021/09/14 08:47:06;;;;;;;8.40;5.97;;;21.00;70.60;;;;;;5012756;28;20025;-69
2021/09/14 08:49:32;;;;;;;9.23;5.53;;;21.00;70.40;;;;;;5013071;28;20281;-70
2021/09/14 08:51:58;;;;;;;8.48;5.60;;;21.00;70.30;;;;;;5013560;28;20043;-70
2021/09/14 08:54:23;;;;;;;8.95;5.93;;;21.00;70.40;;;;;;5013143;28;20033;-70
2021/09/14 08:56:49;;;;;;;9.73;6.18;;;21.10;70.50;;;;;;5012994;28;20148;-71
2021/09/14 08:59:29;;;;;;;9.65;5.78;;;21.10;70.40;;;;;;5010217;28;20202;-71
2021/09/14 09:02:04;;;;;;;8.15;5.65;;;21.30;70.20;;;;;;5004540;28;20026;-72
2021/09/14 09:04:30;;;;;;;8.95;6.05;;;21.20;70.40;;;;;;4989081;28;20071;-73
2021/09/14 09:06:56;;;;;;;10.07;6.15;;;21.20;70.60;;;;;;4988151;28;20502;-71
2021/09/14 09:09:23;;;;;;;9.98;5.03;;;21.20;70.60;;;;;;4989418;28;20041;-73
2021/09/14 09:11:59;;;;;;;9.80;5.40;;;21.30;70.80;;;;;;4989940;28;20065;-72
2021/09/14 09:14:39;;;;;;;8.93;5.85;;;21.40;70.50;;;;;;4988921;28;20037;-72
2021/09/14 09:17:08;;;;;;;10.13;5.72;;;21.40;70.30;;;;;;4989803;28;20720;-73
2021/09/14 09:19:34;;;;;;;8.88;5.53;;;21.50;70.10;;;;;;5007068;28;20045;-73
2021/09/14 09:21:59;;;;;;;7.50;4.70;;;21.60;70.10;;;;;;4989781;28;20026;-73
2021/09/14 09:24:25;;;;;;;7.32;4.35;;;21.60;70.50;;;;;;5007377;28;20030;-73
2021/09/14 09:26:51;;;;;;;8.75;4.95;;;21.60;70.40;;;;;;5007172;28;20487;-73
2021/09/14 09:29:25;;;;;;;8.52;5.50;;;21.70;70.20;;;;;;5005850;28;20033;-73
2021/09/14 09:31:52;;;;;;;8.15;4.85;;;21.70;70.00;;;;;;5005396;28;20036;-72
2021/09/14 09:34:26;;;;;;;8.73;5.50;;;21.80;69.90;;;;;;4989479;28;20034;-73
2021/09/14 09:37:04;;;;;;;11.15;5.70;;;21.80;69.80;;;;;;5006829;28;20026;-73
2021/09/14 09:39:42;;;;;;;8.77;5.28;;;21.80;69.50;;;;;;5006624;28;20088;-73
2021/09/14 09:42:08;;;;;;;8.40;5.68;;;21.80;69.60;;;;;;5022332;28;20023;-73
2021/09/14 09:44:34;;;;;;;8.63;5.25;;;21.80;70.00;;;;;;5026608;28;20021;-73
2021/09/14 09:47:01;;;;;;;10.50;5.82;;;21.80;70.00;;;;;;5026268;28;20026;-72
2021/09/14 09:49:28;;;;;;;8.48;5.47;;;21.80;70.00;;;;;;5026173;28;20025;-73
2021/09/14 09:51:56;;;;;;;7.47;5.30;;;21.80;69.80;;;;;;5026647;28;20021;-72
2021/09/14 09:54:22;;;;;;;8.93;5.88;;;22.00;69.70;;;;;;5025580;28;20061;-74
2021/09/14 09:56:49;;;;;;;8.85;5.30;;;22.00;69.50;;;;;;5006660;28;20041;-69
2021/09/14 09:59:16;;;;;;;9.00;5.53;;;22.10;69.60;;;;;;5002912;28;20169;-72
2021/09/14 10:01:43;;;;;;;9.40;5.85;;;22.10;69.20;;;;;;5025415;28;20036;-72
2021/09/14 10:04:14;;;;;;;10.57;5.97;;;22.30;69.00;;;;;;5015892;28;20033;-72
2021/09/14 10:06:47;;;;;;;8.98;5.60;;;22.20;68.60;;;;;;4995903;28;20036;-71
2021/09/14 10:09:12;;;;;;;8.60;5.95;;;22.30;68.40;;;;;;5014891;28;20792;-72
2021/09/14 10:11:38;;;;;;;9.75;5.43;;;22.30;68.40;;;;;;5000755;28;20038;-72
2021/09/14 10:14:16;;;;;;;9.73;5.38;;;22.30;68.50;;;;;;4998473;28;20026;-72
2021/09/14 10:16:46;;;;;;;7.97;5.10;;;22.40;68.30;;;;;;4996519;28;20513;-72
2021/09/14 10:19:31;;;;;;;8.57;4.88;;;22.50;68.10;;;;;;5017411;28;20075;-72
2021/09/14 10:22:08;;;;;;;7.35;4.80;;;22.50;68.10;;;;;;5007883;28;20095;-73
2021/09/14 10:24:35;;;;;;;8.98;5.22;;;22.40;68.50;;;;;;5012635;28;20312;-73
2021/09/14 10:27:12;;;;;;;9.25;5.80;;;22.40;68.40;;;;;;4993693;28;20171;-74
2021/09/14 10:29:40;;;;;;;9.55;5.70;;;22.30;68.70;;;;;;5022396;28;20095;-73
2021/09/14 10:32:07;;;;;;;8.55;5.60;;;22.30;68.80;;;;;;4995219;28;20037;-74
2021/09/14 10:34:33;;;;;;;9.13;6.05;;;22.20;69.30;;;;;;5022639;28;20380;-73
2021/09/14 10:37:04;;;;;;;10.13;6.20;;;22.10;69.90;;;;;;5007986;28;20083;-73
2021/09/14 10:39:39;;;;;;;9.40;5.95;;;22.10;69.80;;;;;;4991002;28;20025;-72
2021/09/14 10:42:19;;;;;;;9.70;5.57;;;22.10;69.80;;;;;;5018278;28;20028;-72
2021/09/14 10:44:46;;;;;;;10.13;5.93;;;22.10;69.80;;;;;;5011794;28;20110;-69
2021/09/14 10:47:14;;;;;;;8.13;5.40;;;22.10;69.90;;;;;;5013566;28;20022;-73
2021/09/14 10:49:53;;;;;;;8.60;5.57;;;22.20;70.00;;;;;;5001764;28;20033;-72
2021/09/14 10:52:30;;;;;;;8.88;5.70;;;22.30;69.80;;;;;;5024640;28;20024;-73
2021/09/14 10:54:56;;;;;;;8.52;5.60;;;22.40;69.50;;;;;;5008208;28;20037;-72
2021/09/14 10:57:31;;;;;;;8.93;5.72;;;22.40;69.10;;;;;;5016632;28;20024;-72
2021/09/14 10:59:57;;;;;;;8.43;6.07;;;22.50;68.90;;;;;;5012174;28;20037;-73
2021/09/14 11:02:26;;;;;;;8.20;5.60;;;22.60;68.60;;;;;;4995660;28;20025;-72
2021/09/14 11:04:52;;;;;;;9.38;5.60;;;22.70;68.20;;;;;;5015821;28;20025;-72
2021/09/14 11:07:20;;;;;;;11.52;5.55;;;22.80;68.00;;;;;;5007089;28;20029;-73
2021/09/14 11:09:53;;;;;;;8.73;5.07;;;22.50;68.30;;;;;;5025018;28;20105;-74
2021/09/14 11:12:27;;;;;;;8.32;4.82;;;22.70;68.40;;;;;;5020875;28;20041;-74
2021/09/14 11:14:55;;;;;;;8.63;5.05;;;22.80;68.10;;;;;;5002608;28;20030;-74
2021/09/14 11:17:28;;;;;;;7.72;5.05;;;22.90;68.20;;;;;;5006996;28;20033;-73
2021/09/14 11:19:55;;;;;;;9.65;5.30;;;22.90;68.10;;;;;;5023949;28;20205;-73
2021/09/14 11:22:32;;;;;;;7.40;4.95;;;22.90;68.10;;;;;;5007763;28;20022;-73
2021/09/14 11:24:58;;;;;;;8.95;5.38;;;22.90;68.20;;;;;;5024869;28;20100;-73
2021/09/14 11:27:24;;;;;;;8.13;4.70;;;22.90;68.00;;;;;;5008078;28;20459;-73
2021/09/14 11:29:50;;;;;;;7.85;4.72;;;23.00;67.90;;;;;;5025027;28;20115;-74
2021/09/14 11:32:16;;;;;;;8.52;5.05;;;22.80;68.60;;;;;;5025225;28;20800;-72
2021/09/14 11:34:42;;;;;;;7.57;5.03;;;22.90;68.60;;;;;;5002950;28;20405;-74
2021/09/14 11:37:08;;;;;;;7.07;4.90;;;22.90;68.40;;;;;;5005443;28;20037;-72
2021/09/14 11:39:37;;;;;;;9.30;4.85;;;22.70;68.60;;;;;;4994456;28;20096;-75
2021/09/14 11:42:03;;;;;;;8.90;4.97;;;22.90;68.70;;;;;;4997418;28;20032;-75
2021/09/14 11:44:28;;;;;;;9.15;5.13;;;23.00;68.50;;;;;;4986421;28;20038;-74
2021/09/14 11:46:54;;;;;;;8.70;4.82;;;22.80;68.20;;;;;;5004119;28;20033;-74
2021/09/14 11:49:29;;;;;;;8.02;4.90;;;22.70;68.80;;;;;;4987511;28;20054;-74
2021/09/14 11:52:00;;;;;;;7.32;4.72;;;22.70;69.30;;;;;;4986268;28;20030;-74
2021/09/14 11:54:31;;;;;;;;;;;22.70;69.40;;;;;;5005362;28;20065;-75
2021/09/14 11:56:57;;;;;;;6.80;4.82;;;22.70;69.50;;;;;;5004763;28;19909;-73
2021/09/14 11:59:22;;;;;;;7.40;4.60;;;22.80;68.70;;;;;;5004790;28;20651;-74
2021/09/14 12:01:48;;;;;;;8.73;4.78;;;22.90;68.70;;;;;;5004737;28;20027;-74
2021/09/14 12:04:16;;;;;;;6.38;4.55;;;23.00;68.60;;;;;;4987524;28;20084;-74
2021/09/14 12:06:52;;;;;;;8.27;5.05;;;23.20;68.50;;;;;;4987519;28;20496;-74
2021/09/14 12:09:19;;;;;;;9.07;4.88;;;23.20;68.30;;;;;;4987017;28;20033;-74
2021/09/14 12:11:46;;;;;;;7.28;4.63;;;23.20;68.10;;;;;;4987529;28;20041;-74
2021/09/14 12:14:18;;;;;;;8.93;4.82;;;23.20;68.00;;;;;;4986662;28;20121;-75
2021/09/14 12:16:44;;;;;;;6.45;4.65;;;23.20;68.10;;;;;;4987299;28;20034;-74
2021/09/14 12:19:13;;;;;;;7.40;4.90;;;23.30;68.20;;;;;;5004313;28;20025;-74
2021/09/14 12:21:40;;;;;;;6.53;4.55;;;23.30;68.30;;;;;;4986674;28;20029;-73
2021/09/14 12:24:06;;;;;;;8.00;4.50;;;23.30;68.10;;;;;;4986827;28;20030;-73
2021/09/14 12:26:37;;;;;;;7.07;4.38;;;23.30;67.90;;;;;;5005063;28;20030;-73
2021/09/14 12:29:04;;;;;;;7.57;4.30;;;23.30;67.80;;;;;;5004073;28;20484;-73
2021/09/14 12:31:30;;;;;;;7.65;4.43;;;23.30;67.90;;;;;;5004903;28;20056;-74
2021/09/14 12:33:55;;;;;;;7.10;4.10;;;23.20;67.80;;;;;;5004475;28;20554;-74
2021/09/14 12:36:21;;;;;;;7.53;4.35;;;23.20;68.30;;;;;;5004180;28;20033;-73
2021/09/14 12:38:47;;;;;;;8.50;4.78;;;23.00;68.70;;;;;;4986724;28;20030;-74
2021/09/14 12:41:15;;;;;;;7.63;4.93;;;23.10;68.90;;;;;;4994388;28;20025;-74
2021/09/14 12:43:42;;;;;;;6.75;4.43;;;23.10;68.50;;;;;;5005989;28;20030;-74
2021/09/14 12:46:08;;;;;;;7.63;4.90;;;23.20;68.20;;;;;;5024623;28;20029;-73
2021/09/14 12:48:33;;;;;;;6.40;4.30;;;23.20;68.10;;;;;;5024497;28;20339;-74
2021/09/14 12:51:00;;;;;;;7.45;4.22;;;23.20;67.90;;;;;;5027350;28;20029;-74
2021/09/14 12:53:27;;;;;;;7.90;4.15;;;23.30;67.90;;;;;;5010079;28;20098;-76
2021/09/14 12:55:52;;;;;;;6.35;4.07;;;23.30;68.00;;;;;;5027924;28;20045;-74
2021/09/14 12:58:18;;;;;;;7.25;4.38;;;23.30;68.10;;;;;;5009264;28;20061;-75
2021/09/14 13:00:43;;;;;;;6.72;4.22;;;23.20;68.30;;;;;;5027228;28;20085;-74
2021/09/14 13:03:09;;;;;;;6.82;4.20;;;23.30;68.40;;;;;;5027884;28;20301;-74
2021/09/14 13:05:35;;;;;;;8.23;4.68;;;23.30;68.30;;;;;;5010313;28;20040;-74
2021/09/14 13:08:00;;;;;;;7.00;4.20;;;23.20;68.30;;;;;;5009244;28;20053;-75
2021/09/14 13:10:26;;;;;;;7.45;4.15;;;23.20;68.50;;;;;;5009777;28;20052;-75
2021/09/14 13:18:22;;;;;;;6.30;3.88;;;23.20;68.80;;;;;;5017385;28;20261;-73
2021/09/14 13:20:48;;;;;;;7.03;4.13;;;23.20;69.10;;;;;;5016319;28;20190;-73
2021/09/14 13:23:14;;;;;;;6.88;4.05;;;23.20;69.20;;;;;;5003790;28;20021;-73
2021/09/14 13:25:40;;;;;;;8.18;4.85;;;23.30;69.20;;;;;;5010029;28;20052;-73
2021/09/14 13:28:05;;;;;;;6.45;4.20;;;23.20;69.20;;;;;;5009742;28;20402;-74
2021/09/14 13:30:31;;;;;;;7.35;3.90;;;23.20;69.40;;;;;;5008577;28;20478;-74
2021/09/14 13:32:56;;;;;;;8.43;4.38;;;23.20;69.60;;;;;;5002721;28;20029;-74
2021/09/14 13:35:22;;;;;;;6.45;4.22;;;23.20;69.50;;;;;;4993293;28;20540;-75
2021/09/14 13:37:48;;;;;;;6.40;4.18;;;23.10;69.50;;;;;;4999915;28;20061;-72
2021/09/14 13:40:14;;;;;;;6.43;4.10;;;23.10;69.30;;;;;;4996346;28;20069;-73
2021/09/14 13:42:39;;;;;;;7.63;4.00;;;23.10;69.30;;;;;;5017751;28;20067;-74
2021/09/14 13:47:49;;;;;;;6.82;3.90;;;23.10;69.90;;;;;;5026637;28;20056;-74